createdAt,value
2019-05-15T00:00:38.449Z,302.30
2019-05-15T00:01:40.714Z,302.56
2019-05-15T00:02:38.773Z,301.96
2019-05-15T00:03:38.826Z,301.62
2019-05-15T00:04:38.233Z,301.65
2019-05-15T00:05:38.668Z,301.83
2019-05-15T00:06:36.106Z,301.80
2019-05-15T00:07:38.794Z,301.93
2019-05-15T00:08:38.444Z,301.92
2019-05-15T00:09:39.581Z,301.92
2019-05-15T00:10:39.068Z,301.82
2019-05-15T00:11:36.020Z,301.34
2019-05-15T00:12:36.140Z,301.09
2019-05-15T00:13:36.010Z,301.93
2019-05-15T00:14:35.984Z,301.91
2019-05-15T00:15:35.980Z,301.61
2019-05-15T00:16:38.424Z,301.24
2019-05-15T00:17:36.054Z,301.64
2019-05-15T00:18:35.946Z,301.81
2019-05-15T00:19:35.932Z,302.40
2019-05-15T00:20:36.035Z,302.20
2019-05-15T00:21:38.077Z,301.64
2019-05-15T00:22:35.917Z,301.87
2019-05-15T00:23:38.263Z,301.65
2019-05-15T00:24:38.035Z,301.56
2019-05-15T00:25:35.869Z,301.53
2019-05-15T00:26:35.857Z,302.56
2019-05-15T00:27:38.307Z,301.81
2019-05-15T00:28:35.830Z,303.11
2019-05-15T00:29:38.189Z,302.37
2019-05-15T00:30:38.467Z,302.11
2019-05-15T00:31:35.800Z,301.74
2019-05-15T00:32:35.806Z,301.64
2019-05-15T00:33:35.777Z,301.76
2019-05-15T00:34:37.793Z,301.37
2019-05-15T00:35:35.763Z,301.87
2019-05-15T00:36:38.107Z,301.13
2019-05-15T00:37:38.102Z,302.00
2019-05-15T00:38:35.720Z,301.71
2019-05-15T00:39:35.739Z,301.79
2019-05-15T00:40:35.713Z,301.97
2019-05-15T00:41:49.926Z,301.55
2019-05-15T00:42:38.374Z,301.40
2019-05-15T00:43:35.692Z,301.87
2019-05-15T00:44:35.660Z,302.83
2019-05-15T00:45:35.649Z,301.94
2019-05-15T00:46:35.641Z,301.98
2019-05-15T00:47:35.645Z,301.83
2019-05-15T00:48:35.611Z,302.27
2019-05-15T00:49:38.050Z,301.82
2019-05-15T00:50:35.599Z,301.63
2019-05-15T00:51:35.579Z,302.08
2019-05-15T00:52:35.577Z,302.17
2019-05-15T00:53:35.585Z,302.43
2019-05-15T00:54:35.543Z,302.11
2019-05-15T00:55:37.878Z,302.44
2019-05-15T00:56:35.541Z,302.05
2019-05-15T00:57:35.515Z,301.90
2019-05-15T00:58:35.512Z,301.94
2019-05-15T00:59:35.490Z,302.42
2019-05-15T01:00:38.031Z,301.97
2019-05-15T01:01:38.007Z,302.03
2019-05-15T01:02:35.458Z,301.64
2019-05-15T01:03:35.460Z,301.59
2019-05-15T01:04:35.450Z,301.67
2019-05-15T01:05:35.427Z,302.06
2019-05-15T01:06:35.413Z,301.65
2019-05-15T01:07:35.404Z,301.75
2019-05-15T01:08:35.390Z,302.23
2019-05-15T01:09:35.392Z,302.30
2019-05-15T01:10:35.368Z,302.16
2019-05-15T01:11:35.364Z,301.96
2019-05-15T01:12:35.360Z,302.00
2019-05-15T01:13:35.340Z,302.20
2019-05-15T01:14:35.330Z,302.65
2019-05-15T01:15:35.334Z,302.15
2019-05-15T01:16:35.310Z,302.41
2019-05-15T01:17:35.294Z,302.12
2019-05-15T01:18:35.286Z,302.09
2019-05-15T01:19:35.271Z,301.95
2019-05-15T01:20:35.264Z,302.69
2019-05-15T01:21:35.285Z,302.30
2019-05-15T01:22:35.238Z,302.28
2019-05-15T01:23:35.230Z,301.79
2019-05-15T01:24:35.215Z,302.11
2019-05-15T01:25:35.205Z,302.05
2019-05-15T01:26:35.208Z,302.68
2019-05-15T01:27:35.210Z,302.08
2019-05-15T01:28:35.170Z,301.97
2019-05-15T01:29:43.776Z,301.65
2019-05-15T01:30:36.164Z,302.14
2019-05-15T01:31:35.160Z,301.99
2019-05-15T01:32:35.135Z,302.15
2019-05-15T01:33:35.116Z,302.09
2019-05-15T01:34:35.124Z,301.55
2019-05-15T01:35:35.093Z,302.06
2019-05-15T01:36:35.080Z,302.35
2019-05-15T01:37:35.081Z,302.30
2019-05-15T01:38:35.080Z,301.78
2019-05-15T01:39:35.046Z,302.07
2019-05-15T01:40:35.063Z,302.25
2019-05-15T01:41:35.052Z,302.06
2019-05-15T01:42:35.061Z,302.08
2019-05-15T01:43:35.012Z,301.71
2019-05-15T01:44:34.998Z,302.25
2019-05-15T01:45:35.061Z,301.56
2019-05-15T01:46:35.001Z,302.53
2019-05-15T01:47:34.992Z,302.26
2019-05-15T01:48:34.955Z,302.45
2019-05-15T01:49:34.947Z,302.47
2019-05-15T01:50:34.931Z,302.75
2019-05-15T01:51:34.931Z,302.39
2019-05-15T01:52:34.917Z,302.67
2019-05-15T01:53:34.900Z,302.37
2019-05-15T01:54:34.889Z,301.89
2019-05-15T01:55:34.892Z,302.30
2019-05-15T01:56:34.868Z,302.25
2019-05-15T01:57:34.857Z,302.81
2019-05-15T01:58:34.841Z,302.70
2019-05-15T01:59:34.831Z,302.77
2019-05-15T02:00:34.836Z,302.92
2019-05-15T02:01:34.831Z,302.94
2019-05-15T02:02:34.804Z,302.19
2019-05-15T02:03:34.790Z,301.64
2019-05-15T02:04:34.807Z,301.95
2019-05-15T02:05:34.769Z,302.34
2019-05-15T02:06:34.763Z,302.86
2019-05-15T02:07:34.743Z,302.39
2019-05-15T02:08:34.740Z,302.80
2019-05-15T02:09:34.721Z,302.17
2019-05-15T02:10:34.712Z,302.15
2019-05-15T02:11:34.707Z,303.13
2019-05-15T02:12:34.738Z,301.67
2019-05-15T02:13:34.679Z,302.04
2019-05-15T02:14:34.663Z,302.24
2019-05-15T02:15:34.659Z,302.51
2019-05-15T02:16:34.643Z,302.13
2019-05-15T02:17:34.636Z,302.61
2019-05-15T02:18:34.622Z,302.60
2019-05-15T02:19:34.611Z,302.80
2019-05-15T02:20:34.611Z,302.78
2019-05-15T02:21:34.587Z,302.59
2019-05-15T02:22:34.579Z,302.56
2019-05-15T02:23:34.573Z,302.23
2019-05-15T02:24:34.552Z,302.19
2019-05-15T02:25:34.547Z,302.47
2019-05-15T02:26:34.530Z,303.12
2019-05-15T02:27:34.528Z,303.61
2019-05-15T02:28:34.513Z,302.56
2019-05-15T02:29:34.510Z,302.70
2019-05-15T02:30:34.625Z,302.69
2019-05-15T02:31:34.475Z,303.03
2019-05-15T02:32:34.487Z,302.52
2019-05-15T02:33:34.459Z,302.51
2019-05-15T02:34:34.455Z,302.77
2019-05-15T02:35:34.469Z,303.04
2019-05-15T02:36:34.430Z,302.42
2019-05-15T02:37:34.415Z,303.71
2019-05-15T02:38:34.397Z,302.49
2019-05-15T02:39:34.396Z,302.33
2019-05-15T02:40:34.390Z,303.15
2019-05-15T02:41:34.370Z,303.06
2019-05-15T02:42:34.357Z,302.99
2019-05-15T02:43:34.349Z,302.83
2019-05-15T02:44:34.357Z,302.74
2019-05-15T02:45:37.725Z,302.67
2019-05-15T02:46:35.316Z,302.91
2019-05-15T02:47:34.298Z,303.02
2019-05-15T02:48:34.289Z,302.63
2019-05-15T02:49:34.282Z,302.46
2019-05-15T02:50:34.270Z,303.16
2019-05-15T02:51:34.284Z,302.85
2019-05-15T02:52:34.246Z,302.90
2019-05-15T02:53:34.308Z,302.97
2019-05-15T02:54:34.236Z,302.83
2019-05-15T02:55:34.218Z,303.23
2019-05-15T02:56:34.214Z,303.19
2019-05-15T02:57:34.207Z,303.13
2019-05-15T02:58:34.203Z,303.27
2019-05-15T02:59:34.179Z,302.90
2019-05-15T03:00:44.138Z,303.12
2019-05-15T03:01:35.159Z,303.34
2019-05-15T03:02:34.141Z,303.26
2019-05-15T03:03:34.158Z,303.36
2019-05-15T03:04:34.112Z,303.56
2019-05-15T03:05:34.135Z,303.39
2019-05-15T03:06:34.104Z,302.97
2019-05-15T03:07:34.082Z,303.34
2019-05-15T03:08:34.073Z,302.95
2019-05-15T03:09:34.070Z,303.20
2019-05-15T03:10:34.054Z,303.02
2019-05-15T03:11:34.051Z,302.85
2019-05-15T03:12:34.038Z,303.30
2019-05-15T03:13:34.019Z,303.07
2019-05-15T03:14:34.020Z,302.99
2019-05-15T03:15:33.999Z,303.48
2019-05-15T03:16:33.988Z,303.30
2019-05-15T03:17:33.978Z,303.47
2019-05-15T03:18:33.962Z,303.94
2019-05-15T03:19:33.953Z,303.58
2019-05-15T03:20:33.947Z,303.49
2019-05-15T03:21:33.931Z,302.90
2019-05-15T03:22:33.923Z,303.22
2019-05-15T03:23:33.911Z,303.04
2019-05-15T03:24:33.899Z,304.34
2019-05-15T03:25:33.907Z,303.73
2019-05-15T03:26:33.890Z,303.80
2019-05-15T03:27:34.905Z,303.32
2019-05-15T03:28:33.859Z,304.15
2019-05-15T03:29:33.842Z,304.13
2019-05-15T03:31:02.586Z,303.88
2019-05-15T03:31:50.271Z,304.32
2019-05-15T03:32:43.978Z,304.04
2019-05-15T03:33:36.939Z,304.28
2019-05-15T03:34:38.710Z,303.69
2019-05-15T03:35:34.797Z,304.49
2019-05-15T03:36:33.782Z,304.26
2019-05-15T03:37:34.357Z,304.61
2019-05-15T03:38:33.747Z,303.89
2019-05-15T03:39:33.725Z,305.23
2019-05-15T03:40:33.716Z,303.83
2019-05-15T03:41:33.712Z,304.50
2019-05-15T03:42:33.697Z,304.34
2019-05-15T03:43:33.717Z,304.52
2019-05-15T03:44:33.677Z,304.92
2019-05-15T03:45:33.666Z,305.09
2019-05-15T03:46:33.659Z,304.41
2019-05-15T03:47:33.647Z,304.65
2019-05-15T03:48:33.669Z,304.07
2019-05-15T03:49:33.618Z,304.08
2019-05-15T03:50:33.612Z,304.73
2019-05-15T03:51:33.604Z,304.83
2019-05-15T03:52:33.591Z,304.39
2019-05-15T03:53:33.578Z,305.13
2019-05-15T03:54:33.576Z,304.53
2019-05-15T03:55:33.554Z,305.20
2019-05-15T03:56:33.593Z,304.13
2019-05-15T03:57:33.541Z,305.25
2019-05-15T03:58:33.526Z,305.71
2019-05-15T03:59:33.541Z,305.03
2019-05-15T04:00:33.530Z,304.63
2019-05-15T04:01:37.918Z,304.64
2019-05-15T04:02:34.482Z,305.57
2019-05-15T04:03:33.463Z,304.88
2019-05-15T04:04:33.457Z,304.99
2019-05-15T04:05:33.497Z,305.40
2019-05-15T04:06:33.436Z,305.61
2019-05-15T04:07:33.423Z,305.55
2019-05-15T04:08:33.413Z,304.92
2019-05-15T04:09:33.408Z,305.30
2019-05-15T04:10:33.396Z,305.61
2019-05-15T04:11:33.400Z,305.69
2019-05-15T04:12:33.371Z,305.16
2019-05-15T04:13:33.352Z,306.21
2019-05-15T04:14:33.352Z,306.16
2019-05-15T04:15:33.337Z,305.33
2019-05-15T04:16:33.327Z,305.19
2019-05-15T04:17:33.329Z,305.40
2019-05-15T04:18:33.310Z,305.41
2019-05-15T04:19:33.288Z,305.52
2019-05-15T04:20:33.327Z,305.99
2019-05-15T04:21:33.291Z,306.22
2019-05-15T04:22:33.274Z,306.11
2019-05-15T04:23:33.241Z,307.23
2019-05-15T04:24:33.238Z,306.77
2019-05-15T04:25:33.230Z,306.11
2019-05-15T04:26:33.237Z,306.16
2019-05-15T04:27:33.210Z,307.55
2019-05-15T04:28:33.214Z,306.85
2019-05-15T04:29:33.174Z,306.87
2019-05-15T04:30:33.169Z,306.61
2019-05-15T04:31:50.398Z,305.91
2019-05-15T04:32:34.165Z,306.19
2019-05-15T04:33:33.149Z,307.19
2019-05-15T04:34:33.121Z,306.50
2019-05-15T04:35:33.173Z,306.83
2019-05-15T04:36:33.117Z,306.65
2019-05-15T04:37:33.110Z,306.07
2019-05-15T04:38:33.098Z,307.36
2019-05-15T04:39:33.123Z,306.80
2019-05-15T04:40:33.055Z,307.46
2019-05-15T04:41:33.052Z,307.12
2019-05-15T04:42:33.050Z,306.87
2019-05-15T04:43:41.284Z,306.16
2019-05-15T04:44:35.008Z,306.35
2019-05-15T04:45:35.188Z,306.58
2019-05-15T04:46:32.996Z,306.58
2019-05-15T04:47:32.992Z,306.58
2019-05-15T04:48:32.977Z,306.08
2019-05-15T04:49:32.974Z,306.15
2019-05-15T04:50:32.956Z,307.03
2019-05-15T04:51:32.937Z,306.43
2019-05-15T04:52:32.937Z,306.41
2019-05-15T04:53:33.488Z,305.86
2019-05-15T04:54:32.943Z,306.18
2019-05-15T04:55:32.903Z,306.01
2019-05-15T04:56:32.891Z,305.79
2019-05-15T04:57:34.267Z,305.65
2019-05-15T04:58:32.859Z,305.59
2019-05-15T04:59:32.858Z,305.73
2019-05-15T05:00:33.255Z,306.17
2019-05-15T05:01:32.831Z,306.36
2019-05-15T05:02:32.836Z,306.07
2019-05-15T05:03:34.655Z,306.22
2019-05-15T05:04:32.795Z,306.45
2019-05-15T05:05:32.778Z,305.87
2019-05-15T05:06:32.771Z,306.21
2019-05-15T05:07:32.755Z,306.37
2019-05-15T05:08:32.773Z,306.04
2019-05-15T05:09:32.731Z,305.69
2019-05-15T05:10:32.721Z,305.95
2019-05-15T05:11:32.712Z,305.94
2019-05-15T05:12:32.702Z,305.68
2019-05-15T05:13:32.703Z,305.33
2019-05-15T05:14:32.677Z,306.00
2019-05-15T05:15:32.674Z,305.54
2019-05-15T05:16:32.651Z,306.75
2019-05-15T05:17:32.647Z,306.01
2019-05-15T05:18:32.641Z,306.29
2019-05-15T05:19:32.647Z,306.37
2019-05-15T05:20:32.610Z,306.80
2019-05-15T05:21:32.600Z,306.33
2019-05-15T05:22:32.597Z,306.64
2019-05-15T05:23:32.589Z,306.43
2019-05-15T05:24:32.572Z,307.42
2019-05-15T05:25:32.556Z,307.08
2019-05-15T05:26:32.563Z,306.23
2019-05-15T05:27:32.542Z,306.99
2019-05-15T05:28:32.527Z,306.64
2019-05-15T05:29:32.519Z,306.63
2019-05-15T05:30:32.522Z,306.83
2019-05-15T05:31:32.492Z,306.55
2019-05-15T05:32:35.229Z,305.90
2019-05-15T05:33:32.467Z,305.66
2019-05-15T05:34:32.456Z,305.26
2019-05-15T05:35:32.459Z,305.92
2019-05-15T05:36:32.432Z,305.88
2019-05-15T05:37:32.566Z,305.52
2019-05-15T05:38:32.412Z,305.36
2019-05-15T05:39:32.418Z,305.43
2019-05-15T05:40:32.394Z,305.54
2019-05-15T05:41:32.385Z,305.37
2019-05-15T05:42:32.364Z,305.73
2019-05-15T05:43:32.354Z,306.10
2019-05-15T05:44:32.341Z,305.87
2019-05-15T05:45:32.334Z,306.22
2019-05-15T05:46:32.333Z,305.90
2019-05-15T05:47:32.324Z,306.31
2019-05-15T05:48:32.303Z,305.43
2019-05-15T05:49:32.292Z,306.31
2019-05-15T05:50:32.295Z,306.46
2019-05-15T05:51:32.279Z,306.79
2019-05-15T05:52:32.272Z,307.03
2019-05-15T05:53:32.258Z,306.52
2019-05-15T05:54:32.249Z,306.87
2019-05-15T05:55:32.225Z,305.69
2019-05-15T05:56:32.207Z,305.88
2019-05-15T05:57:32.203Z,306.21
2019-05-15T05:58:32.219Z,306.46
2019-05-15T05:59:32.177Z,305.36
2019-05-15T06:00:32.166Z,306.46
2019-05-15T06:01:32.159Z,305.09
2019-05-15T06:02:43.647Z,305.55
2019-05-15T06:03:33.136Z,304.91
2019-05-15T06:04:32.144Z,304.62
2019-05-15T06:05:32.107Z,304.93
2019-05-15T06:06:32.102Z,304.34
2019-05-15T06:07:32.111Z,304.85
2019-05-15T06:08:32.113Z,305.01
2019-05-15T06:09:32.072Z,304.90
2019-05-15T06:10:32.097Z,305.13
2019-05-15T06:11:32.040Z,304.30
2019-05-15T06:12:32.043Z,304.80
2019-05-15T06:13:32.020Z,305.75
2019-05-15T06:14:32.020Z,305.31
2019-05-15T06:15:32.008Z,304.51
2019-05-15T06:16:31.993Z,305.63
2019-05-15T06:17:31.982Z,305.26
2019-05-15T06:18:31.970Z,304.17
2019-05-15T06:19:31.948Z,304.89
2019-05-15T06:20:31.950Z,304.66
2019-05-15T06:21:31.928Z,303.85
2019-05-15T06:22:31.917Z,304.31
2019-05-15T06:23:34.706Z,303.76
2019-05-15T06:24:31.894Z,303.44
2019-05-15T06:25:31.907Z,304.45
2019-05-15T06:26:31.886Z,305.01
2019-05-15T06:27:31.868Z,303.79
2019-05-15T06:28:31.873Z,304.46
2019-05-15T06:29:31.835Z,304.02
2019-05-15T06:30:31.829Z,304.40
2019-05-15T06:31:31.813Z,304.72
2019-05-15T06:32:31.824Z,303.54
2019-05-15T06:33:31.801Z,304.39
2019-05-15T06:34:31.783Z,303.63
2019-05-15T06:35:31.779Z,304.55
2019-05-15T06:36:31.760Z,304.36
2019-05-15T06:37:31.772Z,304.70
2019-05-15T06:38:31.743Z,304.47
2019-05-15T06:39:31.739Z,303.87
2019-05-15T06:40:32.353Z,304.41
2019-05-15T06:41:33.908Z,303.94
2019-05-15T06:42:31.704Z,304.38
2019-05-15T06:43:31.719Z,304.20
2019-05-15T06:44:31.681Z,304.69
2019-05-15T06:45:31.662Z,304.18
2019-05-15T06:46:31.649Z,303.49
2019-05-15T06:47:31.634Z,303.13
2019-05-15T06:48:31.656Z,303.36
2019-05-15T06:49:31.619Z,303.60
2019-05-15T06:50:31.604Z,304.25
2019-05-15T06:51:31.594Z,304.59
2019-05-15T06:52:31.577Z,303.00
2019-05-15T06:53:31.574Z,303.58
2019-05-15T06:54:31.572Z,303.64
2019-05-15T06:55:31.550Z,303.41
2019-05-15T06:56:31.532Z,303.36
2019-05-15T06:57:31.525Z,303.47
2019-05-15T06:58:31.524Z,303.27
2019-05-15T06:59:31.554Z,303.37
2019-05-15T07:00:31.535Z,302.90
2019-05-15T07:01:31.494Z,302.93
2019-05-15T07:02:31.473Z,303.34
2019-05-15T07:03:31.484Z,303.50
2019-05-15T07:04:31.452Z,303.00
2019-05-15T07:05:31.438Z,302.82
2019-05-15T07:06:31.436Z,304.05
2019-05-15T07:07:31.476Z,304.34
2019-05-15T07:08:31.438Z,302.98
2019-05-15T07:09:31.398Z,303.61
2019-05-15T07:10:31.430Z,302.70
2019-05-15T07:11:31.462Z,303.50
2019-05-15T07:12:31.363Z,302.31
2019-05-15T07:13:31.453Z,303.22
2019-05-15T07:14:31.337Z,302.42
2019-05-15T07:15:31.324Z,302.58
2019-05-15T07:16:31.319Z,301.98
2019-05-15T07:17:31.312Z,301.70
2019-05-15T07:18:31.294Z,302.07
2019-05-15T07:19:31.276Z,302.67
2019-05-15T07:20:31.886Z,302.90
2019-05-15T07:21:31.259Z,301.79
2019-05-15T07:22:31.254Z,302.61
2019-05-15T07:23:31.235Z,302.39
2019-05-15T07:24:31.230Z,303.13
2019-05-15T07:25:31.235Z,302.06
2019-05-15T07:26:31.205Z,302.22
2019-05-15T07:27:31.214Z,302.03
2019-05-15T07:28:31.201Z,302.25
2019-05-15T07:29:31.375Z,302.19
2019-05-15T07:30:31.159Z,302.10
2019-05-15T07:31:31.147Z,302.82
2019-05-15T07:32:31.140Z,302.84
2019-05-15T07:33:39.590Z,303.59
2019-05-15T07:34:32.116Z,302.49
2019-05-15T07:35:31.105Z,301.44
2019-05-15T07:36:31.092Z,302.85
2019-05-15T07:37:31.115Z,303.15
2019-05-15T07:38:31.072Z,301.92
2019-05-15T07:39:31.109Z,302.90
2019-05-15T07:40:31.050Z,303.16
2019-05-15T07:41:31.035Z,302.88
2019-05-15T07:42:31.026Z,301.54
2019-05-15T07:43:31.016Z,302.53
2019-05-15T07:44:31.010Z,302.36
2019-05-15T07:45:31.008Z,302.99
2019-05-15T07:46:30.980Z,302.24
2019-05-15T07:47:30.971Z,302.43
2019-05-15T07:48:30.959Z,302.39
2019-05-15T07:49:30.952Z,302.52
2019-05-15T07:50:31.081Z,301.71
2019-05-15T07:51:31.093Z,302.07
2019-05-15T07:52:30.978Z,303.59
2019-05-15T07:53:30.962Z,302.86
2019-05-15T07:54:30.914Z,302.92
2019-05-15T07:55:30.891Z,302.93
2019-05-15T07:56:30.876Z,302.44
2019-05-15T07:57:30.857Z,302.62
2019-05-15T07:58:30.850Z,302.60
2019-05-15T07:59:30.840Z,303.39
2019-05-15T08:00:30.842Z,301.98
2019-05-15T08:01:30.824Z,302.92
2019-05-15T08:02:30.836Z,302.66
2019-05-15T08:03:30.886Z,302.83
2019-05-15T08:04:33.098Z,303.30
2019-05-15T08:05:30.785Z,302.18
2019-05-15T08:06:30.763Z,302.56
2019-05-15T08:07:30.760Z,302.32
2019-05-15T08:08:30.750Z,302.69
2019-05-15T08:09:30.742Z,299.34
2019-05-15T08:10:30.722Z,300.84
2019-05-15T08:11:30.703Z,301.09
2019-05-15T08:12:30.692Z,299.94
2019-05-15T08:13:30.698Z,300.09
2019-05-15T08:14:30.711Z,299.99
2019-05-15T08:15:30.664Z,300.98
2019-05-15T08:16:30.647Z,300.16
2019-05-15T08:17:30.631Z,300.01
2019-05-15T08:18:30.646Z,300.11
2019-05-15T08:19:30.610Z,300.14
2019-05-15T08:20:30.608Z,299.38
2019-05-15T08:21:30.589Z,300.08
2019-05-15T08:22:30.637Z,300.56
2019-05-15T08:23:30.593Z,300.19
2019-05-15T08:24:30.569Z,300.56
2019-05-15T08:25:35.317Z,300.96
2019-05-15T08:26:30.531Z,301.26
2019-05-15T08:27:30.523Z,300.59
2019-05-15T08:28:30.595Z,301.59
2019-05-15T08:29:30.494Z,301.50
2019-05-15T08:30:30.482Z,301.29
2019-05-15T08:31:30.494Z,299.77
2019-05-15T08:32:30.561Z,300.24
2019-05-15T08:33:30.451Z,300.61
2019-05-15T08:34:30.551Z,301.23
2019-05-15T08:35:30.437Z,301.57
2019-05-15T08:36:31.317Z,300.92
2019-05-15T08:37:30.401Z,301.54
2019-05-15T08:38:30.393Z,302.38
2019-05-15T08:39:30.393Z,301.75
2019-05-15T08:40:31.253Z,301.40
2019-05-15T08:41:30.373Z,301.36
2019-05-15T08:42:32.190Z,300.78
2019-05-15T08:43:31.430Z,300.21
2019-05-15T08:44:31.297Z,299.91
2019-05-15T08:45:30.325Z,300.46
2019-05-15T08:46:30.302Z,299.71
2019-05-15T08:47:30.292Z,300.22
2019-05-15T08:48:32.801Z,299.36
2019-05-15T08:49:30.273Z,298.87
2019-05-15T08:50:30.302Z,298.98
2019-05-15T08:51:30.253Z,300.10
2019-05-15T08:52:30.265Z,299.51
2019-05-15T08:53:30.226Z,299.86
2019-05-15T08:54:30.232Z,300.31
2019-05-15T08:55:30.206Z,301.60
2019-05-15T08:56:30.196Z,301.37
2019-05-15T08:57:30.188Z,300.72
2019-05-15T08:58:30.187Z,300.84
2019-05-15T08:59:30.159Z,301.56
2019-05-15T09:00:30.146Z,301.46
2019-05-15T09:01:30.148Z,302.63
2019-05-15T09:02:30.129Z,300.71
2019-05-15T09:03:30.121Z,300.99
2019-05-15T09:04:34.635Z,301.14
2019-05-15T09:05:31.110Z,300.21
2019-05-15T09:06:30.092Z,300.10
2019-05-15T09:07:30.066Z,300.62
2019-05-15T09:08:30.069Z,299.90
2019-05-15T09:09:30.091Z,299.92
2019-05-15T09:10:30.032Z,300.74
2019-05-15T09:11:30.022Z,300.66
2019-05-15T09:12:30.035Z,300.74
2019-05-15T09:13:30.001Z,300.53
2019-05-15T09:14:29.994Z,301.53
2019-05-15T09:15:29.977Z,301.39
2019-05-15T09:16:29.968Z,301.30
2019-05-15T09:17:29.961Z,300.08
2019-05-15T09:18:29.968Z,299.54
2019-05-15T09:19:29.932Z,300.40
2019-05-15T09:20:29.949Z,300.42
2019-05-15T09:21:30.061Z,300.47
2019-05-15T09:22:29.918Z,301.38
2019-05-15T09:23:29.893Z,301.82
2019-05-15T09:24:29.874Z,300.16
2019-05-15T09:25:29.874Z,302.13
2019-05-15T09:26:29.880Z,301.70
2019-05-15T09:27:29.840Z,302.72
2019-05-15T09:28:29.887Z,301.46
2019-05-15T09:29:29.822Z,302.60
2019-05-15T09:30:29.828Z,301.63
2019-05-15T09:31:29.824Z,302.30
2019-05-15T09:32:29.783Z,301.20
2019-05-15T09:33:29.772Z,300.66
2019-05-15T09:34:46.350Z,301.97
2019-05-15T09:35:30.778Z,301.07
2019-05-15T09:36:29.742Z,301.23
2019-05-15T09:37:29.744Z,301.38
2019-05-15T09:38:29.722Z,301.16
2019-05-15T09:39:29.706Z,301.13
2019-05-15T09:40:42.515Z,301.43
2019-05-15T09:41:30.697Z,300.96
2019-05-15T09:42:29.684Z,302.08
2019-05-15T09:43:29.658Z,302.03
2019-05-15T09:44:29.652Z,300.74
2019-05-15T09:45:29.640Z,301.23
2019-05-15T09:46:29.636Z,301.65
2019-05-15T09:47:29.851Z,300.66
2019-05-15T09:48:29.618Z,301.72
2019-05-15T09:49:29.596Z,301.98
2019-05-15T09:50:29.595Z,303.39
2019-05-15T09:51:29.583Z,302.73
2019-05-15T09:52:30.170Z,301.89
2019-05-15T09:53:29.557Z,301.69
2019-05-15T09:54:29.586Z,301.67
2019-05-15T09:55:29.529Z,300.95
2019-05-15T09:56:29.529Z,301.38
2019-05-15T09:57:30.219Z,300.55
2019-05-15T09:58:30.286Z,301.17
2019-05-15T09:59:29.510Z,301.35
2019-05-15T10:00:29.598Z,302.11
2019-05-15T10:01:29.481Z,301.84
2019-05-15T10:02:29.467Z,302.63
2019-05-15T10:03:29.474Z,302.90
2019-05-15T10:04:29.435Z,301.55
2019-05-15T10:05:29.429Z,301.62
2019-05-15T10:06:29.407Z,301.78
2019-05-15T10:07:29.394Z,302.49
2019-05-15T10:08:29.470Z,301.32
2019-05-15T10:09:29.369Z,301.14
2019-05-15T10:10:29.369Z,302.65
2019-05-15T10:11:29.374Z,302.09
2019-05-15T10:12:34.442Z,302.63
2019-05-15T10:13:30.329Z,301.95
2019-05-15T10:14:29.718Z,301.95
2019-05-15T10:15:29.307Z,300.86
2019-05-15T10:16:29.325Z,301.14
2019-05-15T10:17:29.283Z,301.71
2019-05-15T10:18:29.269Z,301.45
2019-05-15T10:19:29.275Z,301.45
2019-05-15T10:20:29.304Z,303.57
2019-05-15T10:21:32.453Z,301.83
2019-05-15T10:22:29.221Z,301.70
2019-05-15T10:23:29.419Z,301.63
2019-05-15T10:24:29.204Z,302.41
2019-05-15T10:25:29.218Z,301.62
2019-05-15T10:26:29.183Z,302.27
2019-05-15T10:27:29.186Z,302.09
2019-05-15T10:28:29.553Z,302.51
2019-05-15T10:29:29.151Z,301.53
2019-05-15T10:30:29.161Z,302.73
2019-05-15T10:31:29.134Z,301.98
2019-05-15T10:32:29.258Z,300.99
2019-05-15T10:33:29.706Z,300.86
2019-05-15T10:34:29.089Z,302.17
2019-05-15T10:35:31.687Z,301.37
2019-05-15T10:36:29.092Z,302.36
2019-05-15T10:37:29.060Z,300.85
2019-05-15T10:38:29.046Z,300.02
2019-05-15T10:39:29.048Z,300.56
2019-05-15T10:40:29.774Z,300.62
2019-05-15T10:41:29.008Z,300.42
2019-05-15T10:42:29.168Z,300.64
2019-05-15T10:43:29.007Z,300.64
2019-05-15T10:44:28.991Z,301.24
2019-05-15T10:45:29.643Z,302.42
2019-05-15T10:46:28.974Z,301.44
2019-05-15T10:47:29.610Z,301.83
2019-05-15T10:48:29.485Z,301.80
2019-05-15T10:49:28.926Z,301.22
2019-05-15T10:50:28.910Z,301.09
2019-05-15T10:51:28.916Z,299.15
2019-05-15T10:52:28.887Z,302.08
2019-05-15T10:53:29.711Z,301.68
2019-05-15T10:54:29.362Z,301.78
2019-05-15T10:55:28.971Z,303.01
2019-05-15T10:56:29.288Z,303.28
2019-05-15T10:57:28.830Z,303.15
2019-05-15T10:58:28.821Z,301.90
2019-05-15T10:59:28.810Z,301.94
2019-05-15T11:00:28.807Z,302.14
2019-05-15T11:01:28.800Z,302.38
2019-05-15T11:02:29.078Z,301.42
2019-05-15T11:03:29.780Z,301.42
2019-05-15T11:04:28.967Z,301.43
2019-05-15T11:05:40.716Z,301.95
2019-05-15T11:06:29.740Z,302.40
2019-05-15T11:07:28.719Z,301.87
2019-05-15T11:08:29.140Z,301.91
2019-05-15T11:09:28.812Z,302.51
2019-05-15T11:10:29.058Z,302.18
2019-05-15T11:11:28.678Z,301.88
2019-05-15T11:12:29.293Z,302.18
2019-05-15T11:13:28.911Z,301.77
2019-05-15T11:14:28.840Z,302.41
2019-05-15T11:15:29.120Z,301.32
2019-05-15T11:16:28.624Z,301.82
2019-05-15T11:17:31.364Z,302.20
2019-05-15T11:18:30.749Z,302.46
2019-05-15T11:19:35.584Z,301.69
2019-05-15T11:20:29.571Z,302.06
2019-05-15T11:21:28.561Z,301.04
2019-05-15T11:22:29.822Z,301.76
2019-05-15T11:23:29.339Z,301.63
2019-05-15T11:24:32.207Z,301.92
2019-05-15T11:25:30.152Z,302.56
2019-05-15T11:26:33.079Z,301.77
2019-05-15T11:27:31.311Z,301.72
2019-05-15T11:28:31.873Z,301.51
2019-05-15T11:29:28.476Z,302.00
2019-05-15T11:30:28.465Z,302.25
2019-05-15T11:31:28.769Z,301.16
2019-05-15T11:32:29.357Z,300.80
2019-05-15T11:33:29.272Z,301.51
2019-05-15T11:34:29.073Z,301.70
2019-05-15T11:35:28.634Z,302.18
2019-05-15T11:36:28.879Z,301.36
2019-05-15T11:37:28.460Z,301.57
2019-05-15T11:38:29.094Z,301.85
2019-05-15T11:39:28.881Z,301.80
2019-05-15T11:40:28.517Z,300.72
2019-05-15T11:41:29.558Z,300.64
2019-05-15T11:42:28.969Z,300.24
2019-05-15T11:43:29.237Z,301.06
2019-05-15T11:44:28.447Z,301.14
2019-05-15T11:45:29.090Z,300.76
2019-05-15T11:46:29.108Z,301.11
2019-05-15T11:47:28.269Z,301.01
2019-05-15T11:48:29.874Z,301.99
2019-05-15T11:49:28.997Z,302.15
2019-05-15T11:50:29.299Z,301.11
2019-05-15T11:51:29.018Z,301.19
2019-05-15T11:52:29.430Z,300.65
2019-05-15T11:53:28.553Z,300.51
2019-05-15T11:54:28.439Z,301.49
2019-05-15T11:55:29.135Z,303.29
2019-05-15T11:56:29.584Z,302.73
2019-05-15T11:57:41.804Z,301.82
2019-05-15T11:58:29.154Z,302.90
2019-05-15T11:59:30.106Z,302.03
2019-05-15T12:00:30.344Z,302.63
2019-05-15T12:01:28.730Z,302.10
2019-05-15T12:02:29.367Z,302.38
2019-05-15T12:03:29.067Z,303.29
2019-05-15T12:04:33.800Z,302.93
2019-05-15T12:05:29.072Z,302.23
2019-05-15T12:06:29.271Z,301.87
2019-05-15T12:07:29.043Z,301.35
2019-05-15T12:08:29.391Z,301.01
2019-05-15T12:09:28.307Z,301.76
2019-05-15T12:10:28.927Z,301.66
2019-05-15T12:11:36.163Z,302.58
2019-05-15T12:12:31.879Z,302.27
2019-05-15T12:13:28.112Z,301.04
2019-05-15T12:14:29.679Z,301.35
2019-05-15T12:15:28.107Z,301.03
2019-05-15T12:16:29.037Z,300.75
2019-05-15T12:17:28.578Z,301.82
2019-05-15T12:18:28.465Z,300.41
2019-05-15T12:19:29.155Z,301.65
2019-05-15T12:20:28.523Z,301.06
2019-05-15T12:21:28.560Z,300.85
2019-05-15T12:22:28.957Z,302.30
2019-05-15T12:23:29.098Z,302.60
2019-05-15T12:24:32.824Z,301.97
2019-05-15T12:25:31.762Z,301.92
2019-05-15T12:26:29.189Z,301.11
2019-05-15T12:27:28.345Z,302.01
2019-05-15T12:28:29.605Z,302.31